Terminal Aerodrome Forecast
Issued by NWS

Home | Current Version | Previous Version | Text Only | Print | Product List | Glossary On
Versions: 1 2 3 4 5 6 7 8 9 10 11 12 13 14 15 16 17 18 19 20 21 22 23 24
983
FTUS45 KCYS 031724
TAFAIA
TAF
KAIA 031724Z 0318/0418 25018KT P6SM SKC
     FM031900 28015G22KT P6SM SCT100
     FM040000 28011KT P6SM FEW100=

USA.gov is the U.S. government's official web portal to all federal, state and local government web resources and services.